Time;durP1;ratioP1;P1;durP2;ratioP2;P2;SDS_P1;SDS_P2;PMS_P1;PMS_P2;Temp;Humidity;BMP_temperature;BMP_pressure;BME280_temperature;BME280_humidity;BME280_pressure;Samples;Min_cycle;Max_cycle;Signal;HPM_P1;HPM_P2
2023/08/21 00:00:04;;;;;;;0.75;0.43;;;;;;;;;;5033161;28;20033;-73
2023/08/21 00:02:30;;;;;;;1.13;0.43;;;;;;;;;;5033129;28;20095;-73
2023/08/21 00:04:56;;;;;;;1.08;0.47;;;;;;;;;;5032385;28;20103;-73
2023/08/21 00:07:22;;;;;;;1.02;0.35;;;;;;;;;;5033858;28;20377;-73
2023/08/21 00:09:50;;;;;;;0.70;0.60;;;;;;;;;;5032965;28;20525;-73
2023/08/21 00:12:16;;;;;;;2.05;0.47;;;;;;;;;;5032941;28;20136;-73
2023/08/21 00:14:42;;;;;;;1.33;0.50;;;;;;;;;;5014998;28;20043;-73
2023/08/21 00:17:10;;;;;;;1.65;0.57;;;26.90;58.60;;;;;;5032992;28;20041;-73
2023/08/21 00:19:36;;;;;;;1.08;0.50;;;;;;;;;;5032884;28;20049;-73
2023/08/21 00:22:02;;;;;;;1.70;0.52;;;;;;;;;;5032744;28;20042;-73
2023/08/21 00:24:28;;;;;;;0.52;0.40;;;;;;;;;;5033015;28;20043;-73
2023/08/21 00:26:54;;;;;;;1.05;0.43;;;;;;;;;;5032552;28;20053;-73
2023/08/21 00:29:20;;;;;;;0.50;0.30;;;;;;;;;;5032566;28;20041;-73
2023/08/21 00:31:46;;;;;;;1.30;0.43;;;;;;;;;;5032786;28;20120;-73
2023/08/21 00:34:12;;;;;;;1.33;0.60;;;;;;;;;;5024998;28;20191;-73
2023/08/21 00:36:38;;;;;;;0.30;0.20;;;;;;;;;;5032488;28;20109;-73
2023/08/21 00:39:05;;;;;;;1.70;0.63;;;;;;;;;;5032366;28;20077;-73
2023/08/21 00:41:33;;;;;;;1.35;0.47;;;;;;;;;;5032137;28;20042;-73
2023/08/21 00:43:59;;;;;;;1.52;0.60;;;;;;;;;;5032349;28;20059;-73
2023/08/21 00:46:25;;;;;;;0.68;0.47;;;;;;;;;;5014664;28;20033;-73
2023/08/21 00:48:52;;;;;;;0.85;0.40;;;;;;;;;;5032280;28;20595;-73
2023/08/21 00:51:18;;;;;;;0.75;0.45;;;;;;;;;;5032299;28;20040;-73
2023/08/21 00:53:44;;;;;;;0.35;0.30;;;26.70;64.40;;;;;;5032090;28;20038;-73
2023/08/21 00:56:11;;;;;;;1.08;0.40;;;;;;;;;;5032161;28;20611;-73
2023/08/21 00:58:37;;;;;;;1.45;0.50;;;;;;;;;;5032012;28;20080;-73
2023/08/21 01:01:04;;;;;;;0.60;0.30;;;;;;;;;;5031995;28;20038;-73
2023/08/21 01:03:30;;;;;;;1.40;0.50;;;;;;;;;;5032370;28;20121;-73
2023/08/21 01:05:56;;;;;;;1.27;0.40;;;;;;;;;;5031855;28;20081;-72
2023/08/21 01:09:00;;;;;;;0.60;0.28;;;26.70;64.30;;;;;;5031976;28;20403;-73
2023/08/21 01:11:38;;;;;;;1.10;0.40;;;26.60;58.70;;;;;;5031966;28;20500;-73
2023/08/21 01:14:26;;;;;;;0.63;0.30;;;26.60;64.40;;;;;;5031929;28;20041;-73
2023/08/21 01:16:56;;;;;;;0.50;0.30;;;26.60;64.40;;;;;;5031787;28;20038;-73
2023/08/21 01:19:42;;;;;;;0.50;0.30;;;26.60;59.10;;;;;;5032012;28;20057;-73
2023/08/21 01:22:09;;;;;;;0.50;0.30;;;;;;;;;;5032119;28;20034;-73
2023/08/21 01:24:35;;;;;;;0.50;0.40;;;;;;;;;;5032052;28;20045;-73
2023/08/21 01:27:02;;;;;;;0.95;0.43;;;;;;;;;;5031885;28;20480;-73
2023/08/21 01:29:29;;;;;;;0.30;0.25;;;26.60;62.30;;;;;;5031841;28;20037;-73
2023/08/21 01:32:32;;;;;;;0.90;0.40;;;26.50;64.60;;;;;;5032406;28;20049;-73
2023/08/21 01:34:58;;;;;;;1.48;0.52;;;;;;;;;;5031677;28;20033;-73
2023/08/21 01:37:25;;;;;;;0.90;0.40;;;;;;;;;;5031224;28;20456;-73
2023/08/21 01:39:52;;;;;;;0.95;0.52;;;;;;;;;;5031619;28;20041;-73
2023/08/21 01:42:18;;;;;;;1.05;0.50;;;;;;;;;;5031430;28;20411;-73
2023/08/21 01:44:45;;;;;;;1.02;0.40;;;;;;;;;;5031275;28;20041;-73
2023/08/21 01:47:12;;;;;;;1.30;0.40;;;;;;;;;;5031533;28;20090;-73
2023/08/21 01:49:39;;;;;;;1.35;0.40;;;;;;;;;;5031227;28;20041;-73
2023/08/21 01:52:05;;;;;;;0.73;0.35;;;;;;;;;;5031479;28;20376;-73
2023/08/21 01:54:32;;;;;;;0.55;0.50;;;;;;;;;;5031186;28;20512;-73
2023/08/21 01:56:58;;;;;;;0.70;0.30;;;;;;;;;;5031608;28;20381;-73
2023/08/21 01:59:25;;;;;;;0.57;0.35;;;;;;;;;;5031711;28;20042;-73
2023/08/21 02:01:51;;;;;;;0.20;0.20;;;;;;;;;;5031437;28;20038;-73
2023/08/21 02:04:18;;;;;;;1.00;0.50;;;;;;;;;;5031179;28;20045;-73
2023/08/21 02:06:44;;;;;;;0.65;0.40;;;;;;;;;;5031587;28;20396;-73
2023/08/21 02:09:11;;;;;;;1.00;0.50;;;;;;;;;;5031093;28;20041;-73
2023/08/21 02:11:37;;;;;;;0.65;0.32;;;;;;;;;;5031713;28;20029;-73
2023/08/21 02:14:04;;;;;;;1.20;0.30;;;;;;;;;;5031495;28;20064;-73
2023/08/21 02:16:30;;;;;;;0.80;0.40;;;;;;;;;;5031172;28;20484;-73
2023/08/21 02:18:57;;;;;;;0.43;0.30;;;;;;;;;;5031015;28;20081;-73
2023/08/21 02:21:24;;;;;;;1.42;0.60;;;;;;;;;;5031098;28;20048;-73
2023/08/21 02:23:50;;;;;;;1.20;0.30;;;;;;;;;;5031432;28;20040;-73
2023/08/21 02:26:17;;;;;;;0.75;0.40;;;;;;;;;;5031316;28;20157;-73
2023/08/21 02:28:43;;;;;;;1.60;0.88;;;;;;;;;;5034645;28;20571;-73
2023/08/21 02:31:10;;;;;;;0.43;0.40;;;;;;;;;;5034904;28;20514;-73
2023/08/21 02:33:37;;;;;;;1.65;0.57;;;;;;;;;;5035127;28;20092;-73
2023/08/21 02:36:03;;;;;;;1.05;0.40;;;;;;;;;;5034991;28;20369;-73
2023/08/21 02:38:30;;;;;;;1.50;0.60;;;;;;;;;;5034583;28;20045;-73
2023/08/21 02:40:56;;;;;;;0.47;0.30;;;;;;;;;;5034932;28;20357;-73
2023/08/21 02:43:23;;;;;;;1.35;0.43;;;;;;;;;;5034608;28;20069;-73
2023/08/21 02:45:49;;;;;;;0.82;0.30;;;;;;;;;;5034635;28;20029;-73
2023/08/21 02:48:16;;;;;;;0.70;0.43;;;;;;;;;;5034531;28;20048;-73
2023/08/21 02:50:43;;;;;;;1.42;0.40;;;;;;;;;;5034818;28;20040;-73
2023/08/21 02:53:09;;;;;;;1.98;0.50;;;;;;;;;;5034505;28;20400;-74
2023/08/21 02:55:36;;;;;;;0.82;0.47;;;;;;;;;;5034821;28;20044;-73
2023/08/21 02:58:02;;;;;;;2.13;0.50;;;;;;;;;;5035134;28;20050;-73
2023/08/21 03:00:29;;;;;;;1.20;0.40;;;;;;;;;;5034748;28;20106;-74
2023/08/21 03:02:55;;;;;;;1.00;0.47;;;;;;;;;;5034207;28;20552;-73
2023/08/21 03:05:22;;;;;;;1.45;0.45;;;;;;;;;;5034035;28;20045;-74
2023/08/21 03:07:49;;;;;;;0.80;0.50;;;;;;;;;;5034666;28;20175;-73
2023/08/21 03:10:15;;;;;;;1.55;0.60;;;;;;;;;;5034442;28;20033;-73
2023/08/21 03:12:42;;;;;;;1.52;0.40;;;;;;;;;;5034037;28;20515;-74
2023/08/21 03:15:08;;;;;;;0.50;0.50;;;;;;;;;;5034295;28;20034;-73
2023/08/21 03:17:35;;;;;;;1.10;0.45;;;;;;;;;;5033896;28;20476;-73
2023/08/21 03:20:04;;;;;;;0.57;0.32;;;;;;;;;;5034008;28;20048;-73
2023/08/21 03:22:31;;;;;;;0.60;0.30;;;;;;;;;;5033961;28;20112;-73
2023/08/21 03:24:58;;;;;;;0.45;0.40;;;;;;;;;;5034430;28;20041;-73
2023/08/21 03:27:24;;;;;;;0.95;0.40;;;;;;;;;;5034077;28;20481;-73
2023/08/21 03:29:51;;;;;;;1.33;0.40;;;;;;;;;;5033842;28;20080;-73
2023/08/21 03:32:18;;;;;;;0.50;0.38;;;;;;;;;;5033819;28;20510;-73
2023/08/21 03:34:44;;;;;;;0.73;0.30;;;26.00;63.00;;;;;;5033709;28;20112;-73
2023/08/21 03:37:11;;;;;;;1.00;0.50;;;;;;;;;;5034011;28;20215;-73
2023/08/21 03:39:38;;;;;;;0.68;0.50;;;;;;;;;;5032675;28;20042;-73
2023/08/21 03:42:05;;;;;;;0.65;0.38;;;;;;;;;;5033588;28;20073;-73
2023/08/21 03:44:31;;;;;;;0.95;0.50;;;;;;;;;;5033709;28;20072;-73
2023/08/21 03:46:58;;;;;;;0.95;0.50;;;;;;;;;;5033763;28;20067;-73
2023/08/21 03:49:25;;;;;;;0.73;0.47;;;;;;;;;;5033812;28;20068;-73
2023/08/21 03:51:52;;;;;;;0.85;0.40;;;;;;;;;;5033635;28;20042;-73
2023/08/21 03:54:18;;;;;;;0.82;0.40;;;;;;;;;;5033793;28;20527;-73
2023/08/21 03:56:45;;;;;;;1.45;0.40;;;;;;;;;;5033167;28;20513;-73
2023/08/21 03:59:11;;;;;;;0.63;0.40;;;;;;;;;;5033085;28;20045;-73
2023/08/21 04:01:38;;;;;;;1.25;0.40;;;;;;;;;;5353624;23;20367;-72
2023/08/21 04:07:25;;;;;;;0.50;0.38;;;;;;;;;;5053167;28;20214;-72
2023/08/21 04:09:51;;;;;;;1.27;0.68;;;;;;;;;;5052715;28;20064;-73
2023/08/21 04:12:17;;;;;;;1.27;0.50;;;;;;;;;;5052722;28;20568;-72
2023/08/21 04:14:43;;;;;;;1.02;0.38;;;;;;;;;;5052696;28;20037;-72
2023/08/21 04:17:09;;;;;;;1.00;0.47;;;;;;;;;;5052757;28;20127;-73
2023/08/21 04:19:35;;;;;;;1.00;0.50;;;;;;;;;;5052521;28;20414;-71
2023/08/21 04:22:01;;;;;;;0.82;0.40;;;;;;;;;;5052592;28;20037;-71
2023/08/21 04:24:27;;;;;;;0.68;0.30;;;;;;;;;;5052536;28;20037;-71
2023/08/21 04:26:53;;;;;;;2.10;0.65;;;;;;;;;;5052475;28;20025;-71
2023/08/21 04:29:19;;;;;;;0.80;0.38;;;;;;;;;;5052511;28;20058;-71
2023/08/21 04:31:45;;;;;;;0.88;0.57;;;;;;;;;;5052596;28;20193;-71
2023/08/21 04:34:12;;;;;;;0.55;0.30;;;;;;;;;;5052354;28;20041;-71
2023/08/21 04:36:38;;;;;;;0.75;0.50;;;;;;;;;;5052789;28;20037;-70
2023/08/21 04:39:04;;;;;;;0.90;0.38;;;;;;;;;;5052145;28;20045;-71
2023/08/21 04:41:30;;;;;;;0.60;0.30;;;;;;;;;;5052186;28;20045;-70
2023/08/21 04:43:55;;;;;;;0.50;0.47;;;;;;;;;;5052068;28;20037;-71
2023/08/21 04:46:21;;;;;;;0.63;0.47;;;;;;;;;;5052051;28;20042;-71
2023/08/21 04:48:47;;;;;;;1.25;0.55;;;;;;;;;;5052244;28;20532;-70
2023/08/21 04:51:14;;;;;;;1.08;0.60;;;;;;;;;;5051833;28;20037;-71
2023/08/21 04:53:40;;;;;;;1.05;0.50;;;;;;;;;;5051944;28;20075;-71
2023/08/21 04:56:06;;;;;;;1.20;0.35;;;;;;;;;;5051905;28;20033;-72
2023/08/21 04:58:32;;;;;;;1.45;0.30;;;;;;;;;;5051793;28;20095;-72
2023/08/21 05:00:59;;;;;;;0.65;0.65;;;;;;;;;;5051856;28;20079;-71
2023/08/21 05:03:25;;;;;;;2.33;0.50;;;;;;;;;;5052003;28;20400;-72
2023/08/21 05:05:54;;;;;;;1.67;0.40;;;25.70;61.00;;;;;;5051645;28;20036;-72
2023/08/21 05:08:24;;;;;;;0.85;0.47;;;25.70;66.80;;;;;;5051676;28;20040;-72
2023/08/21 05:10:57;;;;;;;0.93;0.30;;;25.80;60.90;;;;;;5051654;28;20075;-73
2023/08/21 05:13:23;;;;;;;0.68;0.40;;;;;;;;;;5051536;28;20033;-72
2023/08/21 05:15:56;;;;;;;0.93;0.30;;;25.80;60.90;;;;;;5051583;28;20471;-71
2023/08/21 05:18:22;;;;;;;0.68;0.30;;;25.80;63.40;;;;;;5051502;28;20049;-70
2023/08/21 05:20:49;;;;;;;1.35;0.32;;;25.80;63.90;;;;;;5051436;28;20483;-72
2023/08/21 05:23:15;;;;;;;0.50;0.30;;;;;;;;;;5051442;28;20029;-71
2023/08/21 05:25:41;;;;;;;0.40;0.30;;;;;;;;;;5051459;28;20036;-71
2023/08/21 05:28:07;;;;;;;0.80;0.60;;;;;;;;;;5050907;28;20495;-71
2023/08/21 05:30:35;;;;;;;0.60;0.30;;;;;;;;;;5051395;28;20434;-71
2023/08/21 05:33:01;;;;;;;0.45;0.30;;;;;;;;;;5052060;28;20040;-72
2023/08/21 05:35:27;;;;;;;1.35;0.32;;;;;;;;;;5051289;28;20040;-72
2023/08/21 05:37:53;;;;;;;0.88;0.43;;;;;;;;;;5051072;28;20103;-72
2023/08/21 05:40:19;;;;;;;0.70;0.30;;;;;;;;;;5051121;28;20044;-72
2023/08/21 05:42:45;;;;;;;0.80;0.40;;;;;;;;;;5051105;28;20502;-72
2023/08/21 05:45:11;;;;;;;0.98;0.40;;;;;;;;;;5051023;28;20116;-73
2023/08/21 05:47:37;;;;;;;0.95;0.47;;;;;;;;;;5051005;28;20057;-71
2023/08/21 05:50:04;;;;;;;0.88;0.40;;;;;;;;;;5050957;28;20051;-72
2023/08/21 05:52:30;;;;;;;0.80;0.40;;;;;;;;;;5051017;28;20029;-72
2023/08/21 05:54:56;;;;;;;0.70;0.40;;;;;;;;;;5050953;28;20040;-71
2023/08/21 05:57:22;;;;;;;1.13;0.40;;;;;;;;;;5051061;28;20033;-71
2023/08/21 05:59:48;;;;;;;0.82;0.40;;;;;;;;;;5050951;28;20052;-71
2023/08/21 06:02:14;;;;;;;0.82;0.28;;;;;;;;;;5051878;28;20052;-71
2023/08/21 06:04:41;;;;;;;0.73;0.50;;;25.60;66.80;;;;;;5055093;28;20037;-71
2023/08/21 06:07:08;;;;;;;0.65;0.40;;;;;;;;;;5054922;28;20125;-70
2023/08/21 06:09:34;;;;;;;1.50;0.45;;;;;;;;;;5055262;28;20037;-71
2023/08/21 06:12:01;;;;;;;1.63;0.50;;;;;;;;;;5053751;28;20541;-71
2023/08/21 06:14:30;;;;;;;0.45;0.30;;;;;;;;;;5055004;28;20029;-72
2023/08/21 06:17:03;;;;;;;0.87;0.70;;;25.50;61.30;;;;;;5054945;28;20058;-72
2023/08/21 06:19:29;;;;;;;0.77;0.47;;;;;;;;;;5054680;28;20041;-72
2023/08/21 06:21:56;;;;;;;0.50;0.30;;;;;;;;;;5054783;28;20102;-71
2023/08/21 06:24:22;;;;;;;0.50;0.40;;;;;;;;;;5054664;28;20129;-72
2023/08/21 06:26:48;;;;;;;1.30;0.43;;;;;;;;;;5054694;28;20086;-72
2023/08/21 06:29:14;;;;;;;0.75;0.47;;;;;;;;;;5055065;28;20033;-72
2023/08/21 06:31:40;;;;;;;0.82;0.32;;;;;;;;;;5054596;28;20033;-72
2023/08/21 06:34:06;;;;;;;1.13;0.50;;;;;;;;;;5054535;28;20040;-72
2023/08/21 06:36:32;;;;;;;0.60;0.40;;;;;;;;;;5054405;28;20115;-74
2023/08/21 06:38:58;;;;;;;0.50;0.35;;;;;;;;;;5054397;28;20119;-72
2023/08/21 06:41:25;;;;;;;0.52;0.40;;;;;;;;;;5054318;28;20507;-73
2023/08/21 06:43:51;;;;;;;0.45;0.30;;;;;;;;;;5054535;28;20044;-71
2023/08/21 06:46:17;;;;;;;0.70;0.38;;;;;;;;;;5054269;28;20040;-72
2023/08/21 06:48:43;;;;;;;0.47;0.30;;;;;;;;;;5054255;28;20037;-72
2023/08/21 06:51:10;;;;;;;0.65;0.40;;;25.50;64.70;;;;;;5054405;28;20036;-72
2023/08/21 06:53:36;;;;;;;0.73;0.52;;;;;;;;;;5054161;28;20064;-72
2023/08/21 06:56:02;;;;;;;0.68;0.50;;;;;;;;;;5054336;28;20029;-72
2023/08/21 06:58:28;;;;;;;1.73;0.40;;;;;;;;;;5054377;28;20124;-72
2023/08/21 07:00:55;;;;;;;0.75;0.30;;;;;;;;;;5054032;28;20372;-72
2023/08/21 07:03:21;;;;;;;1.00;0.50;;;;;;;;;;5053698;28;20506;-72
2023/08/21 07:05:55;;;;;;;0.60;0.50;;;25.50;67.40;;;;;;5053928;28;20037;-72
2023/08/21 07:08:21;;;;;;;1.08;0.40;;;;;;;;;;5053871;28;20025;-72
2023/08/21 07:10:47;;;;;;;0.73;0.40;;;;;;;;;;5053949;28;20032;-73
2023/08/21 07:13:13;;;;;;;1.30;0.43;;;;;;;;;;5053655;28;20040;-73
2023/08/21 07:15:39;;;;;;;1.70;0.40;;;;;;;;;;5053747;28;20471;-75
2023/08/21 07:18:05;;;;;;;1.50;0.30;;;;;;;;;;5053663;28;20128;-74
2023/08/21 07:20:31;;;;;;;1.33;0.50;;;;;;;;;;5053908;28;20043;-76
2023/08/21 07:22:57;;;;;;;1.42;0.52;;;;;;;;;;5053315;28;20391;-73
2023/08/21 07:25:24;;;;;;;0.80;0.40;;;;;;;;;;5053709;28;20336;-73
2023/08/21 07:27:52;;;;;;;1.02;0.47;;;;;;;;;;5054239;28;20033;-73
2023/08/21 07:30:19;;;;;;;4.57;0.68;;;;;;;;;;5053380;28;20036;-73
2023/08/21 07:32:45;;;;;;;2.50;0.60;;;;;;;;;;5053384;28;20047;-73
2023/08/21 07:35:11;;;;;;;2.65;0.93;;;;;;;;;;5053516;28;20040;-72
2023/08/21 07:37:37;;;;;;;2.17;0.47;;;;;;;;;;5053093;28;20033;-72
2023/08/21 07:40:03;;;;;;;4.40;0.70;;;;;;;;;;5053336;28;20083;-72
2023/08/21 07:42:29;;;;;;;2.85;1.00;;;;;;;;;;5053123;28;20487;-71
2023/08/21 07:44:55;;;;;;;7.93;0.77;;;;;;;;;;5053143;28;20037;-71
2023/08/21 07:47:21;;;;;;;5.25;1.00;;;;;;;;;;5053044;28;20036;-71
2023/08/21 07:49:47;;;;;;;3.00;0.80;;;;;;;;;;5053031;28;20029;-72
2023/08/21 07:52:15;;;;;;;2.47;0.90;;;;;;;;;;5052915;28;20048;-70
2023/08/21 07:54:42;;;;;;;3.30;0.80;;;;;;;;;;5053655;28;20404;-72
2023/08/21 07:57:09;;;;;;;1.85;0.60;;;;;;;;;;5052937;28;20044;-70
2023/08/21 07:59:35;;;;;;;3.40;0.70;;;;;;;;;;5053205;28;20513;-71
2023/08/21 08:02:03;;;;;;;4.78;1.08;;;;;;;;;;5052878;28;20041;-71
2023/08/21 08:04:29;;;;;;;5.38;0.90;;;;;;;;;;5053219;28;20048;-70
2023/08/21 08:06:55;;;;;;;3.30;0.93;;;;;;;;;;5053224;28;20039;-74
2023/08/21 08:09:22;;;;;;;1.98;0.63;;;;;;;;;;5053095;28;20061;-74
2023/08/21 08:11:48;;;;;;;4.25;0.90;;;;;;;;;;5053018;28;20044;-74
2023/08/21 08:14:15;;;;;;;3.85;0.73;;;;;;;;;;5053096;28;20120;-74
2023/08/21 08:16:41;;;;;;;4.15;0.95;;;;;;;;;;5052580;28;20528;-74
2023/08/21 08:19:08;;;;;;;2.70;0.88;;;25.70;65.10;;;;;;5052515;28;20045;-74
2023/08/21 08:21:34;;;;;;;2.88;0.77;;;;;;;;;;5052572;28;20029;-74
2023/08/21 08:24:01;;;;;;;4.28;1.00;;;;;;;;;;5052603;28;20033;-73
2023/08/21 08:26:27;;;;;;;4.25;0.80;;;;;;;;;;5051979;28;20048;-70
2023/08/21 08:28:53;;;;;;;4.63;0.90;;;;;;;;;;5052523;28;20029;-71
2023/08/21 08:31:19;;;;;;;1.88;0.73;;;;;;;;;;5052829;28;20029;-70
2023/08/21 08:33:47;;;;;;;3.17;0.90;;;;;;;;;;5052654;28;20056;-70
2023/08/21 08:36:14;;;;;;;4.57;1.20;;;;;;;;;;5052576;28;20032;-70
2023/08/21 08:38:40;;;;;;;3.28;0.90;;;;;;;;;;5052687;28;20059;-70
2023/08/21 08:41:11;;;;;;;4.47;0.88;;;25.90;69.10;;;;;;5052733;28;20080;-71
2023/08/21 08:43:40;;;;;;;2.60;1.00;;;26.00;69.00;;;;;;5052183;28;20033;-71
2023/08/21 08:46:10;;;;;;;3.83;1.10;;;26.10;63.40;;;;;;5051838;28;20040;-71
2023/08/21 08:48:38;;;;;;;4.57;0.93;;;26.10;69.30;;;;;;5051967;28;20037;-72
2023/08/21 08:51:05;;;;;;;3.85;0.90;;;;;;;;;;5052305;28;20053;-72
2023/08/21 08:53:31;;;;;;;6.47;1.52;;;;;;;;;;5052277;28;20438;-72
2023/08/21 08:55:58;;;;;;;2.08;0.75;;;26.10;68.10;;;;;;5052187;28;20037;-72
2023/08/21 08:58:25;;;;;;;7.57;1.48;;;;;;;;;;5052140;28;20348;-72
2023/08/21 09:00:51;;;;;;;5.32;1.30;;;;;;;;;;5051856;28;20025;-73
2023/08/21 09:03:18;;;;;;;2.13;1.10;;;;;;;;;;5051694;28;20063;-75
2023/08/21 09:05:44;;;;;;;3.83;1.15;;;;;;;;;;5051552;28;20045;-75
2023/08/21 09:08:11;;;;;;;3.17;0.85;;;;;;;;;;5052082;28;20060;-73
2023/08/21 09:10:39;;;;;;;3.65;1.25;;;26.30;68.10;;;;;;5051874;28;20033;-74
2023/08/21 09:13:16;;;;;;;3.85;1.20;;;26.30;63.90;;;;;;5052161;28;20037;-74
2023/08/21 09:15:47;;;;;;;2.70;0.90;;;26.40;69.90;;;;;;5051574;28;20066;-73
2023/08/21 09:18:14;;;;;;;4.65;0.93;;;;;;;;;;5051615;28;20132;-72
2023/08/21 09:20:41;;;;;;;6.32;1.20;;;;;;;;;;5051775;28;20069;-73
2023/08/21 09:23:12;;;;;;;3.05;0.90;;;26.20;69.60;;;;;;5051751;28;20387;-73
2023/08/21 09:25:40;;;;;;;2.90;0.90;;;26.60;70.90;;;;;;5051668;28;20029;-73
2023/08/21 09:28:07;;;;;;;3.03;0.90;;;26.70;68.80;;;;;;5051002;28;20510;-73
2023/08/21 09:30:54;;;;;;;1.88;0.85;;;26.60;70.70;;;;;;5051518;28;20025;-72
2023/08/21 09:33:22;;;;;;;4.40;0.93;;;26.80;71.00;;;;;;5051673;28;20033;-73
2023/08/21 09:35:49;;;;;;;3.50;1.00;;;;;;;;;;5051406;28;20203;-73
2023/08/21 09:38:15;;;;;;;4.47;0.90;;;;;;;;;;5050972;28;20040;-72
2023/08/21 09:40:42;;;;;;;4.55;1.23;;;26.90;69.90;;;;;;5051343;28;20162;-72
2023/08/21 09:43:11;;;;;;;3.10;1.00;;;26.90;65.30;;;;;;5051559;28;20131;-72
2023/08/21 09:45:38;;;;;;;2.33;0.60;;;;;;;;;;5051412;28;20036;-72
2023/08/21 09:48:05;;;;;;;2.55;0.77;;;;;;;;;;5050908;28;20103;-73
2023/08/21 09:50:31;;;;;;;4.25;1.40;;;;;;;;;;5051429;28;20047;-73
2023/08/21 09:52:58;;;;;;;5.38;1.52;;;27.10;67.90;;;;;;5051161;28;20033;-73
2023/08/21 09:55:31;;;;;;;4.13;1.35;;;;;;;;;;5051238;28;20394;-73
2023/08/21 09:57:59;;;;;;;4.40;0.93;;;27.30;71.00;;;;;;5050948;28;20047;-72
2023/08/21 10:00:33;;;;;;;3.53;0.95;;;27.30;64.70;;;;;;5051398;28;20071;-72
2023/08/21 10:03:04;;;;;;;2.80;1.05;;;27.40;70.40;;;;;;5050741;28;20516;-73
2023/08/21 10:05:32;;;;;;;3.78;1.27;;;27.40;70.40;;;;;;5051559;28;20033;-72
2023/08/21 10:08:05;;;;;;;2.35;0.90;;;27.50;70.30;;;;;;5051145;28;20391;-73
2023/08/21 10:10:33;;;;;;;3.28;0.75;;;27.60;70.30;;;;;;5051444;28;20072;-74
2023/08/21 10:13:00;;;;;;;5.22;1.20;;;;;;;;;;5051010;28;20021;-73
2023/08/21 10:15:31;;;;;;;1.95;0.70;;;27.70;68.30;;;;;;5050862;28;20064;-72
2023/08/21 10:17:58;;;;;;;2.60;1.17;;;;;;;;;;5050945;28;20041;-72
2023/08/21 10:20:25;;;;;;;2.70;1.00;;;27.90;69.60;;;;;;5050942;28;20116;-71
2023/08/21 10:23:01;;;;;;;2.47;0.88;;;27.90;63.80;;;;;;5050725;28;20380;-73
2023/08/21 10:25:27;;;;;;;2.33;0.70;;;;;;;;;;5051188;28;20029;-73
2023/08/21 10:27:55;;;;;;;4.00;0.93;;;28.10;69.60;;;;;;5051151;28;20033;-72
2023/08/21 10:30:28;;;;;;;3.08;0.73;;;28.10;64.00;;;;;;5050900;28;20033;-72
2023/08/21 10:32:55;;;;;;;1.70;0.60;;;28.10;68.30;;;;;;5050853;28;20402;-71
2023/08/21 10:35:23;;;;;;;5.15;1.30;;;28.10;68.50;;;;;;5050889;28;20029;-71
2023/08/21 10:38:11;;;;;;;1.48;0.68;;;28.10;69.60;;;;;;5050160;28;20061;-71
2023/08/21 10:40:38;;;;;;;1.75;0.60;;;;;;;;;;5050949;28;20075;-71
2023/08/21 10:43:04;;;;;;;3.00;0.70;;;;;;;;;;5050554;28;20399;-70
2023/08/21 10:45:30;;;;;;;2.25;0.60;;;;;;;;;;5050672;28;20032;-71
2023/08/21 10:47:59;;;;;;;2.45;0.80;;;28.20;70.00;;;;;;5050911;28;20451;-71
2023/08/21 10:50:26;;;;;;;1.85;0.70;;;;;;;;;;5054488;28;20071;-71
2023/08/21 10:52:53;;;;;;;3.30;0.75;;;28.30;70.30;;;;;;5054427;28;20055;-69
2023/08/21 10:55:19;;;;;;;2.38;0.70;;;;;;;;;;5054223;28;20112;-68
2023/08/21 10:57:47;;;;;;;3.30;0.50;;;28.20;70.20;;;;;;5054137;28;20057;-69
2023/08/21 11:00:16;;;;;;;1.95;0.73;;;28.30;70.70;;;;;;5053646;28;20044;-71
2023/08/21 11:02:47;;;;;;;2.03;0.80;;;28.30;64.40;;;;;;5053997;28;20044;-70
2023/08/21 11:05:15;;;;;;;3.17;0.90;;;28.40;70.00;;;;;;5054020;28;20072;-70
2023/08/21 11:07:48;;;;;;;2.05;0.77;;;28.40;64.10;;;;;;5053967;28;20044;-70
2023/08/21 11:10:21;;;;;;;1.77;0.70;;;28.60;69.60;;;;;;5054297;28;20106;-70
2023/08/21 11:12:55;;;;;;;2.15;0.65;;;28.70;64.00;;;;;;5054343;28;20426;-70
2023/08/21 11:15:21;;;;;;;1.27;0.60;;;;;;;;;;5053905;28;20033;-70
2023/08/21 11:18:03;;;;;;;1.50;0.77;;;28.80;64.00;;;;;;5054017;28;20040;-70
2023/08/21 11:20:33;;;;;;;2.30;0.60;;;28.90;63.70;;;;;;5054150;28;20057;-71
2023/08/21 11:23:02;;;;;;;2.08;0.95;;;29.00;66.40;;;;;;5053926;28;20108;-70
2023/08/21 11:25:28;;;;;;;1.73;0.85;;;;;;;;;;5053749;28;20456;-71
2023/08/21 11:27:54;;;;;;;2.45;0.70;;;;;;;;;;5052986;28;20029;-71
2023/08/21 11:30:23;;;;;;;1.55;0.50;;;29.20;68.70;;;;;;5054264;28;20094;-72
2023/08/21 11:32:50;;;;;;;1.70;0.70;;;;;;;;;;5053744;28;20039;-71
2023/08/21 11:35:16;;;;;;;2.45;0.60;;;;;;;;;;5053757;28;20033;-73
2023/08/21 11:37:47;;;;;;;1.80;0.65;;;29.40;62.70;;;;;;5053435;28;20033;-72
2023/08/21 11:40:14;;;;;;;3.33;0.80;;;;;;;;;;5053595;28;20041;-72
2023/08/21 11:42:40;;;;;;;0.93;0.50;;;;;;;;;;5053592;28;20025;-71
2023/08/21 11:45:07;;;;;;;1.00;0.50;;;;;;;;;;5053678;28;20439;-70
2023/08/21 11:47:34;;;;;;;2.05;0.70;;;29.70;67.80;;;;;;5053411;28;20127;-70
2023/08/21 11:50:09;;;;;;;1.90;0.70;;;29.80;62.00;;;;;;5053762;28;20455;-70
2023/08/21 11:52:38;;;;;;;1.30;0.60;;;29.90;67.10;;;;;;5053580;28;20041;-70
2023/08/21 11:55:09;;;;;;;1.65;0.73;;;29.90;67.20;;;;;;5053622;28;20040;-71
2023/08/21 11:57:35;;;;;;;1.95;0.80;;;;;;;;;;5053225;28;20045;-70
2023/08/21 12:00:04;;;;;;;1.52;0.50;;;;;;;;;;5052752;28;20581;-74
2023/08/21 12:02:31;;;;;;;1.83;0.55;;;;;;;;;;5053169;28;20053;-73
2023/08/21 12:05:13;;;;;;;1.25;0.55;;;30.20;61.20;;;;;;5053760;28;20391;-73
2023/08/21 12:07:39;;;;;;;1.10;0.50;;;;;;;;;;5053503;28;20033;-73
2023/08/21 12:10:06;;;;;;;2.42;0.70;;;;;;;;;;5053176;28;20041;-73
2023/08/21 12:12:33;;;;;;;1.48;0.57;;;;;;;;;;5053300;28;20063;-73
2023/08/21 12:15:00;;;;;;;1.42;0.38;;;;;;;;;;5053371;28;20033;-72
2023/08/21 12:17:29;;;;;;;1.65;0.47;;;;;;;;;;5053404;28;20429;-71
2023/08/21 12:19:56;;;;;;;1.10;0.40;;;;;;;;;;5053068;28;20426;-70
2023/08/21 12:22:22;;;;;;;2.47;0.73;;;;;;;;;;5053338;28;20387;-70
2023/08/21 12:24:49;;;;;;;1.20;0.60;;;;;;;;;;5052937;28;20037;-69
2023/08/21 12:27:16;;;;;;;0.82;0.43;;;;;;;;;;5053104;28;20423;-69
2023/08/21 12:29:42;;;;;;;1.15;0.50;;;;;;;;;;5052559;28;20446;-70
2023/08/21 12:32:08;;;;;;;0.77;0.40;;;;;;;;;;5052772;28;20064;-71
2023/08/21 12:34:34;;;;;;;1.33;0.50;;;;;;;;;;5052526;28;20068;-71
2023/08/21 12:37:00;;;;;;;2.53;0.80;;;;;;;;;;5052102;28;20162;-74
2023/08/21 12:39:26;;;;;;;2.03;0.57;;;;;;;;;;5052623;28;20049;-73
2023/08/21 12:41:52;;;;;;;0.82;0.40;;;;;;;;;;5051174;28;20033;-72
2023/08/21 12:44:18;;;;;;;1.80;0.60;;;;;;;;;;5052379;28;20037;-73
2023/08/21 12:46:44;;;;;;;1.30;0.70;;;;;;;;;;5052347;28;20065;-72
2023/08/21 12:49:10;;;;;;;0.90;0.40;;;;;;;;;;5051876;28;20039;-73
2023/08/21 12:51:36;;;;;;;2.25;0.77;;;;;;;;;;5052177;28;20044;-72
2023/08/21 12:54:03;;;;;;;0.85;0.50;;;;;;;;;;5052761;28;20502;-72
2023/08/21 12:56:29;;;;;;;1.27;0.50;;;;;;;;;;5052324;28;20036;-72
2023/08/21 12:58:55;;;;;;;0.93;0.40;;;;;;;;;;5052131;28;20406;-73
2023/08/21 13:01:21;;;;;;;0.82;0.57;;;;;;;;;;5052131;28;20029;-74
2023/08/21 13:03:47;;;;;;;0.82;0.50;;;;;;;;;;5052052;28;20518;-70
2023/08/21 13:06:14;;;;;;;0.65;0.30;;;31.30;61.50;;;;;;5052593;28;20071;-69
2023/08/21 13:08:40;;;;;;;0.82;0.60;;;;;;;;;;5052140;28;20102;-71
2023/08/21 13:11:06;;;;;;;1.38;0.40;;;;;;;;;;5052185;28;20403;-70
2023/08/21 13:13:33;;;;;;;0.75;0.30;;;31.40;64.80;;;;;;5051981;28;20044;-70
2023/08/21 13:16:00;;;;;;;1.10;0.50;;;;;;;;;;5051773;28;20065;-70
2023/08/21 13:18:27;;;;;;;0.30;0.30;;;;;;;;;;5051852;28;20502;-71
2023/08/21 13:20:53;;;;;;;0.63;0.30;;;;;;;;;;5051927;28;20032;-70
2023/08/21 13:23:20;;;;;;;1.30;0.40;;;;;;;;;;5052132;28;20108;-73
2023/08/21 13:25:46;;;;;;;1.38;0.55;;;;;;;;;;5052027;28;20310;-75
2023/08/21 13:28:13;;;;;;;1.00;0.40;;;;;;;;;;5052049;28;20115;-75
2023/08/21 13:30:39;;;;;;;1.42;0.40;;;;;;;;;;5051749;28;20025;-74
2023/08/21 13:33:06;;;;;;;0.60;0.47;;;;;;;;;;5051603;28;20041;-74
2023/08/21 13:35:32;;;;;;;2.42;0.30;;;;;;;;;;5051690;28;20044;-74
2023/08/21 13:38:00;;;;;;;0.90;0.38;;;;;;;;;;5051711;28;20147;-75
2023/08/21 13:40:26;;;;;;;2.25;0.60;;;;;;;;;;5051445;28;20041;-75
2023/08/21 13:42:53;;;;;;;0.98;0.38;;;;;;;;;;5051477;28;20037;-74
2023/08/21 13:45:20;;;;;;;2.17;0.50;;;31.90;63.50;;;;;;5051470;28;20040;-75
2023/08/21 13:47:47;;;;;;;0.52;0.30;;;32.00;63.70;;;;;;5051370;28;20523;-74
2023/08/21 13:50:14;;;;;;;1.25;0.50;;;;;;;;;;5051280;28;20048;-72
2023/08/21 13:52:41;;;;;;;1.58;0.30;;;32.10;61.50;;;;;;5051633;28;20444;-74
2023/08/21 13:55:09;;;;;;;1.38;0.50;;;32.00;61.90;;;;;;5051518;28;20098;-74
2023/08/21 13:57:36;;;;;;;0.80;0.60;;;;;;;;;;5051349;28;20033;-74
2023/08/21 14:00:13;;;;;;;1.20;0.40;;;32.10;63.70;;;;;;5051338;28;20593;-75
2023/08/21 14:02:41;;;;;;;0.70;0.32;;;32.10;64.00;;;;;;5051304;28;20076;-76
2023/08/21 14:05:08;;;;;;;1.75;0.60;;;32.20;61.00;;;;;;5051460;28;20052;-76
2023/08/21 14:07:34;;;;;;;1.23;0.45;;;32.20;64.10;;;;;;5051257;28;20033;-74
2023/08/21 14:10:01;;;;;;;1.35;0.40;;;;;;;;;;5051160;28;20029;-74
2023/08/21 14:12:30;;;;;;;1.25;0.50;;;32.20;62.40;;;;;;5051205;28;20045;-74
2023/08/21 14:14:56;;;;;;;3.10;0.60;;;;;;;;;;5049825;28;20033;-74
2023/08/21 14:17:23;;;;;;;2.85;0.65;;;;;;;;;;5051410;28;20538;-74